Time;durP1;ratioP1;P1;durP2;ratioP2;P2;SDS_P1;SDS_P2;PMS_P1;PMS_P2;Temp;Humidity;BMP_temperature;BMP_pressure;BME280_temperature;BME280_humidity;BME280_pressure;Samples;Min_cycle;Max_cycle;Signal;HPM_P1;HPM_P2
2022/12/14 00:02:15;;;;;;;;;;;;;;;;;;5033157;28;20394;-59
2022/12/14 00:04:41;;;;;;;;;;;;;;;;;;5037908;28;19917;-60
2022/12/14 00:07:06;;;;;;;;;;;;;;;;;;5037253;28;19917;-60
2022/12/14 00:09:31;;;;;;;;;;;;;;;;;;5039803;28;19917;-61
2022/12/14 00:11:56;;;;;;;;;;;;;;;;;;5039625;28;19944;-61
2022/12/14 00:14:22;;;;;;;;;;;;;;;;;;5038298;28;20332;-61
2022/12/14 00:16:47;;;;;;;;;;;;;;;;;;5037725;28;19952;-61
2022/12/14 00:19:12;;;;;;;;;;;;;;;;;;5029955;28;19952;-60
2022/12/14 00:21:38;;;;;;;;;;;;;;;;;;5031934;28;20015;-62
2022/12/14 00:24:03;;;;;;;;;;;;;;;;;;5014515;28;20397;-60
2022/12/14 00:26:32;;;;;;;;;;;;;;;;;;5031730;28;19928;-60
2022/12/14 00:28:58;;;;;;;;;;;;;;;;;;5031346;28;19966;-61
2022/12/14 00:31:24;;;;;;;;;;;;;;;;;;5030898;28;19956;-60
2022/12/14 00:33:49;;;;;;;;;;;;;;;;;;5027754;28;19923;-61
2022/12/14 00:36:15;;;;;;;;;;;;;;;;;;5033026;28;19920;-61
2022/12/14 00:38:40;;;;;;;;;;;;;;;;;;5032827;28;20328;-61
2022/12/14 00:41:06;;;;;;;;;;;;;;;;;;5036490;28;19928;-61
2022/12/14 00:43:31;;;;;;;;;;;;;;;;;;5034985;28;19913;-61
2022/12/14 00:45:57;;;;;;;;;;;;;;;;;;5031001;28;19952;-60
2022/12/14 00:48:22;;;;;;;;;;;;;;;;;;5033900;28;19917;-59
2022/12/14 00:50:49;;;;;;;;;;;;;;;;;;5036328;28;20291;-59
2022/12/14 00:53:14;;;;;;;;;;;;;;;;;;5038043;28;19913;-61
2022/12/14 00:55:40;;;;;;;;;;;;;;;;;;5035193;28;19913;-62
2022/12/14 00:58:06;;;;;;;;;;;;;;;;;;5035025;28;19925;-60
2022/12/14 01:00:32;;;;;;;;;;;;;;;;;;5032054;28;19923;-60
2022/12/14 01:02:57;;;;;;;;;;;;;;;;;;5040141;28;20305;-60
2022/12/14 01:05:22;;;;;;;;;;;;;;;;;;5038119;28;19967;-61
2022/12/14 01:07:48;;;;;;;;;;;;;;;;;;5035854;28;19913;-60
2022/12/14 01:10:13;;;;;;;;;;;;;;;;;;5037149;28;19921;-61
2022/12/14 01:12:38;;;;;;;;;;;;;;;;;;5033460;28;19912;-61
2022/12/14 01:15:04;;;;;;;;;;;;;;;;;;5036999;28;19975;-62
2022/12/14 01:17:29;;;;;;;;;;;;;;;;;;5028937;28;19913;-61
2022/12/14 01:19:54;;;;;;;;;;;;;;;;;;5030147;28;20331;-60
2022/12/14 01:22:19;;;;;;;;;;;;;;;;;;5030041;28;19979;-61
2022/12/14 01:24:45;;;;;;;;;;;;;;;;;;5030656;28;20378;-61
2022/12/14 01:27:10;;;;;;;;;;;;;;;;;;5030361;28;19948;-60
2022/12/14 01:29:35;;;;;;;;;;;;;;;;;;5031824;28;19933;-61
2022/12/14 01:32:01;;;;;;;;;;;;;;;;;;5036961;28;19946;-60
2022/12/14 01:34:26;;;;;;;;;;;;;;;;;;5037942;28;19947;-61
2022/12/14 01:36:52;;;;;;;;;;;;;;;;;;5036488;28;19971;-59
2022/12/14 01:39:17;;;;;;;;;;;;;;;;;;5036471;28;19920;-60
2022/12/14 01:41:42;;;;;;;;;;;;;;;;;;5037349;28;20230;-61
2022/12/14 01:44:07;;;;;;;;;;;;;;;;;;5039590;28;19921;-60
2022/12/14 01:46:35;;;;;;;;;;;;;;;;;;5038021;28;19913;-60
2022/12/14 01:49:04;;;;;;;;;;;;;;;;;;5037599;28;19917;-60
2022/12/14 01:51:30;;;;;;;;;;;;;;;;;;5038432;28;19924;-60
2022/12/14 01:53:55;;;;;;;;;;;;;;;;;;5041992;28;19912;-59
2022/12/14 01:56:21;;;;;;;;;;;;;;;;;;5037910;28;19964;-62
2022/12/14 01:58:46;;;;;;;;;;;;;;;;;;5038566;28;19917;-61
2022/12/14 02:01:11;;;;;;;;;;;;;;;;;;5039718;28;19920;-62
2022/12/14 02:03:39;;;;;;;;;;;;;;;;;;5041738;28;20367;-59
2022/12/14 02:06:07;;;;;;;;;;;;;;;;;;5043630;28;20011;-61
2022/12/14 02:08:32;;;;;;;;;;;;;;;;;;5040364;28;19917;-61
2022/12/14 02:10:58;;;;;;;;;;;;;;;;;;5040532;28;19995;-60
2022/12/14 02:13:26;;;;;;;;;;;;;;;;;;5042207;28;19967;-61
2022/12/14 02:15:51;;;;;;;;;;;;;;;;;;5038809;28;19971;-61
2022/12/14 02:18:19;;;;;;;;;;;;;;;;;;5032548;28;19921;-62
2022/12/14 02:21:03;;;;;;;;;;;;;;;;;;5034071;28;20440;-63
2022/12/14 02:23:43;;;;;;;;;;;;;;;;;;5035521;28;19920;-60
2022/12/14 02:26:11;;;;;;;;;;;;;;;;;;5034394;28;19917;-61
2022/12/14 02:28:36;;;;;;;;;;;;;;;;;;5034353;28;19913;-61
2022/12/14 02:31:07;;;;;;;;;;;;;;;;;;5036176;28;19920;-61
2022/12/14 02:33:44;;;;;;;;;;;;;;;;;;5036054;28;20422;-61
2022/12/14 02:36:30;;;;;;;;;;;;;;;;;;5035760;28;19936;-60
2022/12/14 02:39:15;;;;;;;;;;;;;;;;;;5034805;28;19913;-61
2022/12/14 02:41:52;;;;;;;;;;;;;;;;;;5032087;28;19956;-61
2022/12/14 02:44:23;;;;;;;;;;;;;;;;;;5037305;28;20011;-61
2022/12/14 02:46:51;;;;;;;;;;;;;;;;;;5037550;28;20005;-61
2022/12/14 02:49:19;;;;;;;;;;;;;;;;;;5039561;28;19923;-60
2022/12/14 02:51:54;;;;;;;;;;;;;;;;;;5038298;28;19919;-61
2022/12/14 02:54:22;;;;;;;;;;;;;;;;;;5038350;28;19913;-60
2022/12/14 02:56:52;;;;;;;;;;;;;;;;;;5041263;28;19927;-61
2022/12/14 02:59:18;;;;;;;;;;;;;;;;;;5040926;28;19921;-61
2022/12/14 03:01:45;;;;;;;;;;;;;;;;;;5039111;28;19917;-61
2022/12/14 03:04:10;;;;;;;;;;;;;;;;;;5039837;28;19920;-62
2022/12/14 03:06:36;;;;;;;;;;;;;;;;;;5040732;28;19913;-61
2022/12/14 03:09:06;;;;;;;;;;;;;;;;;;5042792;28;19967;-61
2022/12/14 03:11:35;;;;;;;;;;;;;;;;;;5040052;28;19913;-61
2022/12/14 03:14:26;;;;;;;;;;;;;;;;;;5039908;28;19913;-59
2022/12/14 03:16:52;;;;;;;;;;;;;;;;;;5030805;28;19992;-59
2022/12/14 03:19:40;;;;;;;;;;;;;;;;;;5015319;28;19914;-60
2022/12/14 03:22:13;;;;;;;;;;;;;;;;;;5021178;28;20323;-60
2022/12/14 03:24:44;;;;;;;;;;;;;;;;;;5025669;28;19913;-60
2022/12/14 03:27:15;;;;;;;;;;;;;;;;;;5032609;28;20272;-61
2022/12/14 03:29:47;;;;;;;;;;;;;;;;;;5031190;28;19928;-60
2022/12/14 03:32:14;;;;;;;;;;;;;;;;;;5036927;28;19952;-61
2022/12/14 03:34:41;;;;;;;;;;;;;;;;;;5035246;28;20409;-60
2022/12/14 03:37:16;;;;;;;;;;;;;;;;;;5033904;28;20008;-60
2022/12/14 03:39:42;;;;;;;;;;;;;;;;;;5035242;28;20421;-61
2022/12/14 03:42:17;;;;;;;;;;;;;;;;;;5038966;28;20409;-62
2022/12/14 03:44:50;;;;;;;;;;;;;;;;;;5033565;28;20298;-59
2022/12/14 03:47:24;;;;;;;;;;;;;;;;;;5035423;28;20456;-61
2022/12/14 03:49:55;;;;;;;;;;;;;;;;;;5036859;28;19928;-60
2022/12/14 03:52:38;;;;;;;;;;;;;;;;;;5036847;28;20293;-60
2022/12/14 03:55:16;;;;;;;;;;;;;;;;;;5032992;28;19913;-61
2022/12/14 03:57:50;;;;;;;;;;;;;;;;;;5035753;28;19952;-61
2022/12/14 04:00:17;;;;;;;;;;;;;;;;;;5037983;28;20326;-61
2022/12/14 04:02:46;;;;;;;;;;;;;;;;;;5037622;28;19913;-62
2022/12/14 04:05:18;;;;;;;;;;;;;;;;;;5038285;28;19913;-61
2022/12/14 04:07:49;;;;;;;;;;;;;;;;;;5026978;28;19919;-61
2022/12/14 04:21:32;;;;;;;;;;;;;;;;;;5032922;28;19961;-63
2022/12/14 04:26:49;;;;;;;;;;;;;;;;;;5032807;28;20008;-61
2022/12/14 04:32:02;;;;;;;;;;;;;;;;;;5034041;28;19927;-61
2022/12/14 04:34:29;;;;;;;;;;;;;;;;;;5033533;28;20398;-61
2022/12/14 04:36:56;;;;;;;;;;;;;;;;;;5035133;28;20015;-59
2022/12/14 04:39:25;;;;;;;;;;;;;;;;;;5036079;28;19913;-60
2022/12/14 04:41:52;;;;;;;;;;;;;;;;;;5034828;28;19992;-61
2022/12/14 04:44:20;;;;;;;;;;;;;;;;;;5034337;28;20004;-62
2022/12/14 04:46:47;;;;;;;;;;;;;;;;;;5036459;28;19925;-61
2022/12/14 04:49:15;;;;;;;;;;;;;;;;;;5031828;28;19923;-60
2022/12/14 04:51:59;;;;;;;;;;;;;;;;;;5029138;28;20287;-60
2022/12/14 04:54:30;;;;;;;;;;;;;;;;;;5026962;28;19913;-60
2022/12/14 04:57:06;;;;;;;;;;;;;;;;;;5026836;28;19924;-61
2022/12/14 04:59:31;;;;;;;;;;;;;;;;;;5026197;28;20023;-61
2022/12/14 05:01:56;;;;;;;;;;;;;;;;;;5023709;28;20008;-60
2022/12/14 05:04:29;;;;;;;;;;;;;;;;;;5030094;28;19913;-60
2022/12/14 05:06:54;;;;;;;;;;;;;;;;;;5041256;28;20382;-59
2022/12/14 05:09:20;;;;;;;;;;;;;;;;;;5029019;28;19988;-60
2022/12/14 05:11:50;;;;;;;;;;;;;;;;;;5035590;28;20406;-59
2022/12/14 05:14:18;;;;;;;;;;;;;;;;;;5022204;28;19924;-59
2022/12/14 05:16:43;;;;;;;;;;;;;;;;;;5028545;28;19913;-59
2022/12/14 05:19:09;;;;;;;;;;;;;;;;;;5029786;28;19913;-62
2022/12/14 05:21:46;;;;;;;;;;;;;;;;;;5031354;28;19959;-60
2022/12/14 05:24:11;;;;;;;;;;;;;;;;;;5016353;28;20379;-61
2022/12/14 05:26:37;;;;;;;;;;;;;;;;;;5035067;28;19998;-61
2022/12/14 05:29:02;;;;;;;;;;;;;;;;;;5033204;28;19927;-57
2022/12/14 05:31:28;;;;;;;;;;;;;;;;;;5032727;28;19917;-60
2022/12/14 05:33:53;;;;;;;;;;;;;;;;;;5032926;28;20496;-61
2022/12/14 05:36:18;;;;;;;;;;;;;;;;;;5034026;28;19912;-62
2022/12/14 05:38:44;;;;;;;;;;;;;;;;;;5032253;28;20016;-61
2022/12/14 05:41:09;;;;;;;;;;;;;;;;;;5033962;28;19914;-61
2022/12/14 05:43:34;;;;;;;;;;;;;;;;;;5033758;28;19914;-62
2022/12/14 05:46:00;;;;;;;;;;;;;;;;;;5035366;28;19939;-61
2022/12/14 05:48:25;;;;;;;;;;;;;;;;;;5035604;28;19913;-62
2022/12/14 05:50:51;;;;;;;;;;;;;;;;;;5040358;28;19916;-63
2022/12/14 05:53:17;;;;;;;;;;;;;;;;;;5034110;28;20293;-62
2022/12/14 05:55:46;;;;;;;;;;;;;;;;;;5028348;28;20015;-62
2022/12/14 05:58:11;;;;;;;;;;;;;;;;;;5025747;28;19933;-62
2022/12/14 06:00:37;;;;;;;;;;;;;;;;;;5035120;28;20390;-62
2022/12/14 06:03:03;;;;;;;;;;;;;;;;;;5028948;28;19924;-62
2022/12/14 06:05:28;;;;;;;;;;;;;;;;;;5034356;28;19929;-61
2022/12/14 06:07:53;;;;;;;;;;;;;;;;;;5031220;28;19917;-62
2022/12/14 06:10:19;;;;;;;;;;;;;;;;;;5025386;28;19921;-62
2022/12/14 06:12:44;;;;;;;;;;;;;;;;;;5029848;28;19913;-62
2022/12/14 06:15:09;;;;;;;;;;;;;;;;;;5030230;28;19913;-62
2022/12/14 06:17:34;;;;;;;;;;;;;;;;;;5026807;28;20382;-63
2022/12/14 06:20:00;;;;;;;;;;;;;;;;;;5033182;28;19913;-61
2022/12/14 06:22:25;;;;;;;;;;;;;;;;;;5033857;28;19913;-61
2022/12/14 06:24:50;;;;;;;;;;;;;;;;;;5034554;28;20297;-62
2022/12/14 06:27:16;;;;;;;;;;;;;;;;;;5033897;28;19912;-62
2022/12/14 06:29:41;;;;;;;;;;;;;;;;;;5035734;28;19917;-62
2022/12/14 06:32:06;;;;;;;;;;;;;;;;;;5031677;28;19971;-62
2022/12/14 06:34:32;;;;;;;;;;;;;;;;;;5026634;28;19917;-61
2022/12/14 06:36:57;;;;;;;;;;;;;;;;;;5034218;28;20068;-62
2022/12/14 06:39:22;;;;;;;;;;;;;;;;;;5033476;28;20371;-63
2022/12/14 06:41:49;;;;;;;;;;;;;;;;;;5035631;28;20563;-61
2022/12/14 06:44:14;;;;;;;;;;;;;;;;;;5034995;28;20020;-62
2022/12/14 06:46:40;;;;;;;;;;;;;;;;;;5037016;28;20067;-62
2022/12/14 06:49:05;;;;;;;;;;;;;;;;;;5035255;28;20286;-62
2022/12/14 06:51:31;;;;;;;;;;;;;;;;;;5032851;28;20003;-62
2022/12/14 06:53:57;;;;;;;;;;;;;;;;;;5030149;28;19924;-61
2022/12/14 06:56:23;;;;;;;;;;;;;;;;;;5030927;28;20287;-62
2022/12/14 06:58:49;;;;;;;;;;;;;;;;;;5028634;28;19924;-63
2022/12/14 07:01:15;;;;;;;;;;;;;;;;;;5035179;28;20306;-61
2022/12/14 07:03:41;;;;;;;;;;;;;;;;;;5028269;28;19917;-62
2022/12/14 07:06:07;;;;;;;;;;;;;;;;;;5029874;28;19924;-64
2022/12/14 07:08:33;;;;;;;;;;;;;;;;;;5031147;28;19928;-63
2022/12/14 07:11:02;;;;;;;;;;;;;;;;;;5031791;28;19928;-61
2022/12/14 07:13:28;;;;;;;;;;;;;;;;;;5029284;28;19921;-64
2022/12/14 07:15:54;;;;;;;;;;;;;;;;;;5031710;28;19971;-61
2022/12/14 07:18:20;;;;;;;;;;;;;;;;;;5030892;28;19917;-62
2022/12/14 07:20:54;;;;;;;;;;;;;;;;;;5032963;28;20000;-61
2022/12/14 07:23:19;;;;;;;;;;;;;;;;;;5032813;28;19917;-62
2022/12/14 07:25:45;;;;;;;;;;;;;;;;;;5032693;28;19917;-62
2022/12/14 07:28:10;;;;;;;;;;;;;;;;;;5031635;28;20386;-62
2022/12/14 07:30:35;;;;;;;;;;;;;;;;;;5034674;28;19948;-61
2022/12/14 07:33:00;;;;;;;;;;;;;;;;;;5033861;28;19917;-62
2022/12/14 07:35:26;;;;;;;;;;;;;;;;;;5035091;28;20521;-62
2022/12/14 07:37:51;;;;;;;;;;;;;;;;;;5016729;28;19913;-61
2022/12/14 07:40:16;;;;;;;;;;;;;;;;;;5035797;28;19940;-61
2022/12/14 07:42:41;;;;;;;;;;;;;;;;;;5035721;28;19924;-64
2022/12/14 07:45:07;;;;;;;;;;;;;;;;;;5036647;28;19936;-61
2022/12/14 07:47:32;;;;;;;;;;;;;;;;;;5035659;28;20342;-61
2022/12/14 07:49:57;;;;;;;;;;;;;;;;;;5040052;28;19930;-61
2022/12/14 07:52:22;;;;;;;;;;;;;;;;;;5039325;28;20401;-61
2022/12/14 07:54:48;;;;;;;;;;;;;;;;;;5036577;28;19996;-61
2022/12/14 07:57:13;;;;;;;;;;;;;;;;;;5034493;28;19936;-60
2022/12/14 07:59:38;;;;;;;;;;;;;;;;;;5033561;28;19922;-63
2022/12/14 08:02:04;;;;;;;;;;;;;;;;;;5037627;28;19925;-60
2022/12/14 08:04:29;;;;;;;;;;;;;;;;;;5038937;28;20420;-62
2022/12/14 08:06:54;;;;;;;;;;;;;;;;;;5038171;28;19920;-61
2022/12/14 08:09:20;;;;;;;;;;;;;;;;;;5037808;28;20337;-61
2022/12/14 08:11:45;;;;;;;;;;;;;;;;;;5030465;28;19913;-63
2022/12/14 08:14:12;;;;;;;;;;;;;;;;;;5031477;28;20382;-61
2022/12/14 08:16:38;;;;;;;;;;;;;;;;;;5030566;28;20279;-63
2022/12/14 08:19:03;;;;;;;;;;;;;;;;;;5031418;28;20004;-63
2022/12/14 08:21:29;;;;;;;;;;;;;;;;;;5033774;28;19920;-60
2022/12/14 08:23:54;;;;;;;;;;;;;;;;;;5031648;28;20298;-61
2022/12/14 08:26:20;;;;;;;;;;;;;;;;;;5032668;28;19919;-61
2022/12/14 08:28:45;;;;;;;;;;;;;;;;;;5032409;28;19913;-60
2022/12/14 08:31:12;;;;;;;;;;;;;;;;;;5030443;28;19923;-60
2022/12/14 08:33:38;;;;;;;;;;;;;;;;;;5031760;28;19947;-63
2022/12/14 08:36:07;;;;;;;;;;;;;;;;;;5031573;28;20371;-62
2022/12/14 08:38:32;;;;;;;;;;;;;;;;;;5030973;28;19940;-60
2022/12/14 08:41:01;;;;;;;;;;;;;;;;;;5032274;28;20457;-63
2022/12/14 08:43:26;;;;;;;;;;;;;;;;;;5035321;28;19921;-60
2022/12/14 08:45:53;;;;;;;;;;;;;;;;;;5033369;28;20004;-61
2022/12/14 08:48:18;;;;;;;;;;;;;;;;;;5031878;28;20287;-60
2022/12/14 08:50:43;;;;;;;;;;;;;;;;;;5034482;28;19970;-61
2022/12/14 08:53:09;;;;;;;;;;;;;;;;;;5035771;28;20040;-61
2022/12/14 08:55:35;;;;;;;;;;;;;;;;;;5031032;28;19913;-62
2022/12/14 08:58:01;;;;;;;;;;;;;;;;;;5027602;28;20008;-61
2022/12/14 09:00:26;;;;;;;;;;;;;;;;;;5030058;28;20004;-61
2022/12/14 09:02:52;;;;;;;;;;;;;;;;;;5040652;28;19920;-61
2022/12/14 09:05:18;;;;;;;;;;;;;;;;;;5032375;28;19920;-61
2022/12/14 09:07:43;;;;;;;;;;;;;;;;;;5027608;28;19949;-61
2022/12/14 09:10:09;;;;;;;;;;;;;;;;;;5011622;28;20580;-61
2022/12/14 09:12:35;;;;;;;;;;;;;;;;;;5029618;28;19917;-61
2022/12/14 09:15:00;;;;;;;;;;;;;;;;;;5029390;28;19917;-61
2022/12/14 09:17:26;;;;;;;;;;;;;;;;;;5028409;28;20439;-61
2022/12/14 09:19:51;;;;;;;;;;;;;;;;;;5030642;28;20306;-61
2022/12/14 09:22:16;;;;;;;;;;;;;;;;;;5030597;28;19960;-61
2022/12/14 09:24:41;;;;;;;;;;;;;;;;;;5030994;28;19921;-61
2022/12/14 09:27:07;;;;;;;;;;;;;;;;;;5030289;28;19928;-61
2022/12/14 09:29:33;;;;;;;;;;;;;;;;;;5027064;28;19921;-60
2022/12/14 09:31:58;;;;;;;;;;;;;;;;;;5028056;28;20352;-59
2022/12/14 09:34:24;;;;;;;;;;;;;;;;;;5031463;28;19924;-60
2022/12/14 09:36:49;;;;;;;;;;;;;;;;;;5030509;28;20459;-60
2022/12/14 09:39:15;;;;;;;;;;;;;;;;;;5028970;28;19971;-60
2022/12/14 09:41:52;;;;;;;;;;;;;;;;;;5033848;28;19917;-60
2022/12/14 09:44:29;;;;;;;;;;;;;;;;;;5031681;28;19921;-61
2022/12/14 09:47:05;;;;;;;;;;;;;;;;;;5027397;28;20448;-60
2022/12/14 09:49:32;;;;;;;;;;;;;;;;;;5032297;28;19939;-62
2022/12/14 09:51:59;;;;;;;;;;;;;;;;;;5040042;28;20089;-61
2022/12/14 09:54:26;;;;;;;;;;;;;;;;;;5038321;28;19982;-60
2022/12/14 09:56:53;;;;;;;;;;;;;;;;;;5031825;28;19917;-61
2022/12/14 09:59:19;;;;;;;;;;;;;;;;;;5030274;28;20632;-61
2022/12/14 10:01:47;;;;;;;;;;;;;;;;;;5038789;28;19969;-61
2022/12/14 10:04:30;;;;;;;;;;;;;;;;;;5040241;28;20416;-61
2022/12/14 10:07:07;;;;;;;;;;;;;;;;;;5035446;28;19917;-60
2022/12/14 10:09:39;;;;;;;;;;;;;;;;;;5031574;28;19921;-60
2022/12/14 10:12:07;;;;;;;;;;;;;;;;;;5027834;28;19944;-59
2022/12/14 10:14:51;;;;;;;;;;;;;;;;;;5032243;28;19921;-61
2022/12/14 10:17:22;;;;;;;;;;;;;;;;;;5034080;28;20404;-60
2022/12/14 10:19:53;;;;;;;;;;;;;;;;;;5029309;28;19920;-60
2022/12/14 10:22:38;;;;;;;;;;;;;;;;;;5030800;28;19924;-61
2022/12/14 10:25:09;;;;;;;;;;;;;;;;;;5034948;28;19913;-60
2022/12/14 10:27:36;;;;;;;;;;;;;;;;;;5030826;28;20287;-60
2022/12/14 10:30:06;;;;;;;;;;;;;;;;;;5033386;28;19921;-60
2022/12/14 10:32:34;;;;;;;;;;;;;;;;;;5034180;28;19936;-60
2022/12/14 10:35:15;;;;;;;;;;;;;;;;;;5038152;28;19921;-60
2022/12/14 10:37:42;;;;;;;;;;;;;;;;;;5034910;28;19917;-60
2022/12/14 10:40:07;;;;;;;;;;;;;;;;;;5031471;28;19990;-61
2022/12/14 10:42:38;;;;;;;;;;;;;;;;;;5031503;28;20025;-61
2022/12/14 10:45:09;;;;;;;;;;;;;;;;;;5032896;28;19920;-61
2022/12/14 10:47:39;;;;;;;;;;;;;;;;;;5036606;28;20406;-61
2022/12/14 10:50:14;;;;;;;;;;;;;;;;;;5031829;28;19932;-61
2022/12/14 10:52:41;;;;;;;;;;;;;;;;;;5037189;28;20293;-62
2022/12/14 10:55:15;;;;;;;;;;;;;;;;;;5037956;28;19917;-61
2022/12/14 10:57:40;;;;;;;;;;;;;;;;;;5029897;28;20054;-61
2022/12/14 11:00:11;;;;;;;;;;;;;;;;;;5034401;28;19999;-61
2022/12/14 11:02:57;;;;;;;;;;;;;;;;;;5036759;28;19925;-62
2022/12/14 11:05:22;;;;;;;;;;;;;;;;;;5035658;28;19917;-61
2022/12/14 11:07:48;;;;;;;;;;;;;;;;;;5029814;28;19928;-61
2022/12/14 11:10:24;;;;;;;;;;;;;;;;;;5032223;28;20001;-62
2022/12/14 11:13:00;;;;;;;;;;;;;;;;;;5032402;28;19992;-62
2022/12/14 11:15:30;;;;;;;;;;;;;;;;;;5032716;28;19917;-62
2022/12/14 11:18:11;;;;;;;;;;;;;;;;;;5031370;28;20283;-62
2022/12/14 11:20:47;;;;;;;;;;;;;;;;;;5030576;28;19986;-62
2022/12/14 11:23:17;;;;;;;;;;;;;;;;;;5030820;28;19936;-62
2022/12/14 11:25:44;;;;;;;;;;;;;;;;;;5029344;28;20055;-62
2022/12/14 11:28:15;;;;;;;;;;;;;;;;;;5030646;28;19951;-62
2022/12/14 11:30:50;;;;;;;;;;;;;;;;;;5025934;28;20386;-62
2022/12/14 11:33:16;;;;;;;;;;;;;;;;;;5031698;28;19917;-61
2022/12/14 11:35:48;;;;;;;;;;;;;;;;;;5027203;28;20451;-62
2022/12/14 11:38:14;;;;;;;;;;;;;;;;;;5029199;28;19990;-62
2022/12/14 11:40:39;;;;;;;;;;;;;;;;;;5033028;28;19957;-62
2022/12/14 11:43:10;;;;;;;;;;;;;;;;;;5029462;28;19913;-63
2022/12/14 11:45:36;;;;;;;;;;;;;;;;;;5030929;28;19917;-63
2022/12/14 11:48:13;;;;;;;;;;;;;;;;;;5033419;28;19912;-61
2022/12/14 11:50:39;;;;;;;;;;;;;;;;;;5029034;28;20446;-64
2022/12/14 11:53:05;;;;;;;;;;;;;;;;;;5034825;28;19918;-62
2022/12/14 11:55:32;;;;;;;;;;;;;;;;;;5028374;28;19956;-60
2022/12/14 11:57:58;;;;;;;;;;;;;;;;;;5018083;28;19923;-61
2022/12/14 12:00:23;;;;;;;;;;;;;;;;;;5030098;28;20000;-61
2022/12/14 12:02:54;;;;;;;;;;;;;;;;;;5034353;28;20016;-62
2022/12/14 12:05:22;;;;;;;;;;;;;;;;;;5033649;28;19924;-63
2022/12/14 12:07:50;;;;;;;;;;;;;;;;;;5029149;28;19917;-61
2022/12/14 12:10:19;;;;;;;;;;;;;;;;;;5028614;28;19928;-63
2022/12/14 12:12:47;;;;;;;;;;;;;;;;;;5027860;28;19924;-62
2022/12/14 12:15:17;;;;;;;;;;;;;;;;;;5026446;28;19917;-63
2022/12/14 12:17:43;;;;;;;;;;;;;;;;;;5020316;28;19920;-62
2022/12/14 12:20:32;;;;;;;;;;;;;;;;;;5013409;28;19920;-61
2022/12/14 12:23:00;;;;;;;;;;;;;;;;;;5019446;28;20477;-60
2022/12/14 12:25:26;;;;;;;;;;;;;;;;;;5029249;28;20311;-61
2022/12/14 12:27:58;;;;;;;;;;;;;;;;;;5026511;28;19923;-60
2022/12/14 12:30:27;;;;;;;;;;;;;;;;;;5030068;28;20402;-61
2022/12/14 12:32:53;;;;;;;;;;;;;;;;;;5027928;28;19917;-63
2022/12/14 12:35:21;;;;;;;;;;;;;;;;;;5026723;28;19920;-60
2022/12/14 12:37:53;;;;;;;;;;;;;;;;;;5025893;28;19924;-60
2022/12/14 12:40:26;;;;;;;;;;;;;;;;;;5027747;28;20003;-60
2022/12/14 12:42:57;;;;;;;;;;;;;;;;;;5030838;28;19928;-60
2022/12/14 12:45:28;;;;;;;;;;;;;;;;;;5029106;28;20020;-60
2022/12/14 12:48:11;;;;;;;;;;;;;;;;;;5010530;28;19929;-62
2022/12/14 12:50:39;;;;;;;;;;;;;;;;;;5029179;28;19921;-60
2022/12/14 12:53:15;;;;;;;;;;;;;;;;;;5031671;28;19939;-62
2022/12/14 12:55:42;;;;;;;;;;;;;;;;;;5023458;28;19932;-62
2022/12/14 12:58:12;;;;;;;;;;;;;;;;;;5027129;28;20467;-62
2022/12/14 13:00:39;;;;;;;;;;;;;;;;;;5028510;28;19953;-62
2022/12/14 13:03:04;;;;;;;;;;;;;;;;;;5028581;28;19932;-62
2022/12/14 13:05:30;;;;;;;;;;;;;;;;;;5028609;28;19992;-62
2022/12/14 13:08:00;;;;;;;;;;;;;;;;;;5025632;28;19917;-62
2022/12/14 13:10:52;;;;;;;;;;;;;;;;;;5027959;28;20433;-62
2022/12/14 13:13:20;;;;;;;;;;;;;;;;;;5016942;28;20000;-63
2022/12/14 13:15:48;;;;;;;;;;;;;;;;;;5026650;28;19925;-62
2022/12/14 13:18:13;;;;;;;;;;;;;;;;;;5022962;28;20360;-62
2022/12/14 13:20:39;;;;;;;;;;;;;;;;;;5030539;28;19971;-63
2022/12/14 13:23:04;;;;;;;;;;;;;;;;;;5025466;28;19960;-62
2022/12/14 13:25:42;;;;;;;;;;;;;;;;;;5028097;28;19932;-63
2022/12/14 13:28:14;;;;;;;;;;;;;;;;;;5030778;28;19964;-62
2022/12/14 13:31:06;;;;;;;;;;;;;;;;;;5034399;28;19921;-63
2022/12/14 13:33:49;;;;;;;;;;;;;;;;;;5029229;28;19925;-61
2022/12/14 13:36:37;;;;;;;;;;;;;;;;;;5028359;28;19941;-63
2022/12/14 13:39:02;;;;;;;;;;;;;;;;;;5028141;28;19921;-62
2022/12/14 13:41:30;;;;;;;;;;;;;;;;;;5031125;28;19925;-62
2022/12/14 13:44:04;;;;;;;;;;;;;;;;;;5039864;28;19917;-63
2022/12/14 13:46:29;;;;;;;;;;;;;;;;;;5038128;28;20359;-62
2022/12/14 13:48:59;;;;;;;;;;;;;;;;;;5036931;28;19991;-63
2022/12/14 13:51:48;;;;;;;;;;;;;;;;;;5036679;28;20167;-63
2022/12/14 13:54:34;;;;;;;;;;;;;;;;;;5037909;28;20011;-62
2022/12/14 13:57:07;;;;;;;;;;;;;;;;;;5032904;28;19913;-61
2022/12/14 13:59:35;;;;;;;;;;;;;;;;;;5038063;28;19943;-62
2022/12/14 14:02:01;;;;;;;;;;;;;;;;;;5042556;28;19919;-62
2022/12/14 14:04:30;;;;;;;;;;;;;;;;;;5041325;28;19924;-61
2022/12/14 14:07:14;;;;;;;;;;;;;;;;;;5040234;28;19913;-61
2022/12/14 14:09:42;;;;;;;;;;;;;;;;;;5037622;28;20007;-62
2022/12/14 14:12:23;;;;;;;;;;;;;;;;;;5038066;28;20008;-61
2022/12/14 14:14:54;;;;;;;;;;;;;;;;;;5035243;28;19921;-62
2022/12/14 14:17:38;;;;;;;;;;;;;;;;;;5030550;28;20428;-62
2022/12/14 14:20:42;;;;;;;;;;;;;;;;;;5031169;28;20314;-63
2022/12/14 14:23:14;;;;;;;;;;;;;;;;;;4956564;28;19948;-63
2022/12/14 14:25:40;;;;;;;;;;;;;;;;;;4953456;28;19939;-65
2022/12/14 14:28:09;;;;;;;;;;;;;;;;;;4993177;28;20497;-62
2022/12/14 14:30:36;;;;;;;;;;;;;;;;;;5030134;28;19987;-61
2022/12/14 14:33:02;;;;;;;;;;;;;;;;;;5032540;28;19917;-62
2022/12/14 14:35:34;;;;;;;;;;;;;;;;;;5035059;28;20232;-62
2022/12/14 14:38:10;;;;;;;;;;;;;;;;;;5031790;28;19932;-61
2022/12/14 14:40:36;;;;;;;;;;;;;;;;;;5035219;28;19986;-63
2022/12/14 14:43:06;;;;;;;;;;;;;;;;;;5033609;28;19936;-63
2022/12/14 14:45:31;;;;;;;;;;;;;;;;;;5029941;28;20295;-62
2022/12/14 14:48:01;;;;;;;;;;;;;;;;;;5014823;28;19971;-62
2022/12/14 14:50:37;;;;;;;;;;;;;;;;;;5031784;28;20421;-62
2022/12/14 14:53:09;;;;;;;;;;;;;;;;;;5038362;28;19917;-63
2022/12/14 14:55:35;;;;;;;;;;;;;;;;;;5032235;28;19920;-64
2022/12/14 14:58:06;;;;;;;;;;;;;;;;;;5029430;28;19917;-61
2022/12/14 15:00:38;;;;;;;;;;;;;;;;;;5030541;28;19925;-62
2022/12/14 15:03:05;;;;;;;;;;;;;;;;;;5039863;28;19918;-62
2022/12/14 15:05:33;;;;;;;;;;;;;;;;;;5034972;28;19925;-62
2022/12/14 15:07:58;;;;;;;;;;;;;;;;;;5031273;28;19931;-61
2022/12/14 15:10:26;;;;;;;;;;;;;;;;;;5030616;28;19921;-62
2022/12/14 15:12:53;;;;;;;;;;;;;;;;;;5030369;28;19925;-62
2022/12/14 15:15:25;;;;;;;;;;;;;;;;;;5032091;28;19927;-61
2022/12/14 15:17:50;;;;;;;;;;;;;;;;;;5029854;28;20332;-62
2022/12/14 15:20:23;;;;;;;;;;;;;;;;;;5027146;28;19917;-62
2022/12/14 15:22:49;;;;;;;;;;;;;;;;;;5028926;28;20306;-62
2022/12/14 15:25:24;;;;;;;;;;;;;;;;;;5029695;28;19917;-64
2022/12/14 15:27:51;;;;;;;;;;;;;;;;;;5026971;28;20000;-61
2022/12/14 15:30:26;;;;;;;;;;;;;;;;;;5027346;28;20379;-63
2022/12/14 15:32:57;;;;;;;;;;;;;;;;;;5028562;28;19943;-62
2022/12/14 15:35:25;;;;;;;;;;;;;;;;;;5031397;28;20309;-64
2022/12/14 15:37:51;;;;;;;;;;;;;;;;;;5029513;28;20404;-63
2022/12/14 15:40:21;;;;;;;;;;;;;;;;;;5028188;28;19923;-62
2022/12/14 15:42:52;;;;;;;;;;;;;;;;;;5030083;28;20011;-62
2022/12/14 15:45:19;;;;;;;;;;;;;;;;;;5033685;28;19933;-62
2022/12/14 15:47:44;;;;;;;;;;;;;;;;;;5032107;28;19913;-62
2022/12/14 15:50:31;;;;;;;;;;;;;;;;;;5037758;28;19971;-63
2022/12/14 15:53:06;;;;;;;;;;;;;;;;;;5029847;28;19917;-63
2022/12/14 15:55:36;;;;;;;;;;;;;;;;;;5030224;28;19927;-63
2022/12/14 15:58:10;;;;;;;;;;;;;;;;;;5029389;28;19916;-62
2022/12/14 16:00:39;;;;;;;;;;;;;;;;;;5034307;28;19933;-62
2022/12/14 16:03:14;;;;;;;;;;;;;;;;;;5031053;28;19923;-62
2022/12/14 16:05:40;;;;;;;;;;;;;;;;;;5028915;28;19924;-62
2022/12/14 16:08:07;;;;;;;;;;;;;;;;;;5030306;28;19921;-64
2022/12/14 16:10:32;;;;;;;;;;;;;;;;;;5014050;28;20454;-62
2022/12/14 16:13:01;;;;;;;;;;;;;;;;;;5034422;28;19928;-63
2022/12/14 16:15:27;;;;;;;;;;;;;;;;;;5029727;28;20012;-61
2022/12/14 16:17:53;;;;;;;;;;;;;;;;;;5031802;28;20042;-62
2022/12/14 16:20:18;;;;;;;;;;;;;;;;;;5026237;28;20512;-62
2022/12/14 16:23:02;;;;;;;;;;;;;;;;;;5028527;28;20000;-62
2022/12/14 16:25:29;;;;;;;;;;;;;;;;;;5028601;28;19917;-64
2022/12/14 16:27:54;;;;;;;;;;;;;;;;;;5028621;28;19913;-59
2022/12/14 16:30:23;;;;;;;;;;;;;;;;;;5027558;28;19928;-59
2022/12/14 16:32:50;;;;;;;;;;;;;;;;;;5025873;28;19925;-62
2022/12/14 16:35:17;;;;;;;;;;;;;;;;;;5030640;28;20008;-61
2022/12/14 16:37:42;;;;;;;;;;;;;;;;;;5028720;28;19921;-60
2022/12/14 16:40:20;;;;;;;;;;;;;;;;;;5030918;28;19928;-62
2022/12/14 16:42:45;;;;;;;;;;;;;;;;;;5026374;28;19953;-60
2022/12/14 16:45:30;;;;;;;;;;;;;;;;;;5031179;28;19994;-61
2022/12/14 16:48:01;;;;;;;;;;;;;;;;;;5025160;28;19917;-61
2022/12/14 16:50:26;;;;;;;;;;;;;;;;;;5029995;28;20291;-61
2022/12/14 16:53:11;;;;;;;;;;;;;;;;;;5030180;28;19924;-63
2022/12/14 16:55:56;;;;;;;;;;;;;;;;;;5033371;28;19994;-66
2022/12/14 16:58:21;;;;;;;;;;;;;;;;;;5029218;28;19917;-62
2022/12/14 17:00:55;;;;;;;;;;;;;;;;;;5028922;28;19921;-62
2022/12/14 17:03:21;;;;;;;;;;;;;;;;;;5028402;28;19992;-62
2022/12/14 17:05:49;;;;;;;;;;;;;;;;;;5029377;28;19921;-61
2022/12/14 17:08:14;;;;;;;;;;;;;;;;;;5028875;28;20403;-62
2022/12/14 17:10:39;;;;;;;;;;;;;;;;;;5032616;28;19947;-62
2022/12/14 17:13:05;;;;;;;;;;;;;;;;;;5028404;28;19943;-63
2022/12/14 17:15:32;;;;;;;;;;;;;;;;;;5031775;28;19975;-62